• Join FlightAware (Why Join?)
  • Login
  • US Flag 
08:17AM EDT


 

Airport Tracker/Info


-or-


 

Live Flight TrackerFlight Track Log ✈ C-GYPG ✈ 20-Apr-2013 ✈ CYAV - CYAV

Flight Track Log - Related Links

Times and Time Zones

All times are in EDT time to prevent confusion due to time zone crossing. See the C-GYPG flight status page for this flight to view local times or setup timezone preferences in your user account.

Time Position Orientation Groundspeed Altitude Reporting Facility
EDT Latitude Longitude Course Direction KTS MPH feet Rate Location/Type
10:36AM 50.0333 -97.0167 180° South 80 92 1,400  Level Winnipeg Center
10:37AM 50.0167 -97.0167 180° South 80 92 2,100 600 Climbing Winnipeg Center
10:38AM 50.0000 -97.0167 180° South 80 92 2,700 480 Climbing Winnipeg Center
10:39AM 49.9833 -97.0500 232° Southwest 100 115 3,100 120 Climbing Winnipeg Center
10:40AM 49.9833 -97.1000 270° West 120 138 3,000 -60 Descending Winnipeg Center
10:41AM 49.9833 -97.1500 270° West 120 138 3,000 -60 Level Winnipeg Center
10:42AM 49.9667 -97.2000 243° Southwest 120 138 2,900  Descending Winnipeg Center
10:43AM 49.9667 -97.2500 270° West 120 138 3,000  Climbing Winnipeg Center
10:44AM 49.9667 -97.2833 270° West 120 138 3,000  Level Winnipeg Center
10:45AM 49.9833 -97.3333 297° West 130 150 3,000  Level Winnipeg Center
10:46AM 50.0000 -97.3833 297° West 120 138 3,000  Level Winnipeg Center
10:47AM 50.0167 -97.4333 297° West 120 138 3,000  Level Winnipeg Center
10:48AM 50.0167 -97.4667 270° West 120 138 3,000  Level Winnipeg Center
10:49AM 50.0333 -97.4333 52° Northeast 120 138 3,000  Level Winnipeg Center
10:50AM 50.0167 -97.4167 147° Southeast 100 115 3,000  Level Winnipeg Center
10:51AM 50.0000 -97.3833 128° Southeast 100 115 3,000  Level Winnipeg Center
10:52AM 49.9667 -97.3500 147° Southeast 100 115 3,000 -360 Level Winnipeg Center
10:53AM 49.9500 -97.3333 147° Southeast 100 115 2,300 -600 Descending Winnipeg Center
10:54AM 49.9333 -97.3000 128° Southeast 100 115 1,800 -600 Descending Winnipeg Center
10:55AM 49.9167 -97.2500 117° Southeast 100 115 1,200 -180 Descending Winnipeg Center
10:56AM 49.9000 -97.2500 180° South 100 115 1,500 360 Climbing Winnipeg Center
10:57AM 49.8833 -97.3000 243° Southwest 100 115 2,000 480 Climbing Winnipeg Center
10:58AM 49.8833 -97.3500 270° West 100 115 2,500 420 Climbing Winnipeg Center
10:59AM 49.9167 -97.3833 327° Northwest 110 127 2,900 240 Climbing Winnipeg Center
11:00AM 49.9333 -97.4000 327° Northwest 110 127 3,000  Climbing Winnipeg Center
11:01AM 49.9500 -97.4667 291° West 110 127 3,000 -60 Level Winnipeg Center
11:02AM 49.9833 -97.4667 360° North 110 127 2,900  Descending Winnipeg Center
11:03AM 50.0000 -97.4000 69° East 110 127 3,000  Climbing Winnipeg Center
11:04AM 49.9833 -97.3833 147° Southeast 100 115 3,000 -120 Level Winnipeg Center
11:05AM 49.9667 -97.3500 128° Southeast 100 115 2,800 -360 Descending Winnipeg Center
11:06AM 49.9500 -97.3000 117° Southeast 100 115 2,300 -600 Descending Winnipeg Center
11:07AM 49.9333 -97.2833 147° Southeast 100 115 1,600 -600 Descending Winnipeg Center
11:08AM 49.9167 -97.2500 128° Southeast 100 115 1,100 -120 Descending Winnipeg Center
11:09AM 49.9000 -97.2333 147° Southeast 120 138 1,400 540 Climbing Winnipeg Center
11:10AM 49.9000 -97.1667 90° East 100 115 2,200 600 Climbing Winnipeg Center
11:11AM 49.9167 -97.1167 63° Northeast 110 127 2,700 360 Climbing Winnipeg Center
11:12AM 49.9167 -97.0667 90° East 130 150 3,000 120 Climbing Winnipeg Center
11:13AM 49.9500 -97.0500 18° North 120 138 3,000 -60 Level Winnipeg Center
11:14AM 49.9667 -97.0167 52° Northeast 120 138 2,900 -60 Descending Winnipeg Center
11:15AM 50.0000 -97.0000 18° North 120 138 2,900  Level Winnipeg Center
11:16AM 50.0333 -96.9667 33° Northeast 120 138 2,900  Level Winnipeg Center
11:17AM 50.0667 -96.9667 360° North 120 138 2,900  Level Winnipeg Center
11:18AM 50.1000 -96.9333 33° Northeast 120 138 2,900  Level Winnipeg Center
11:19AM 50.1167 -96.9167 33° Northeast 120 138 2,900  Level Winnipeg Center
11:20AM 50.1500 -96.8833 33° Northeast 120 138 3,000  Climbing Winnipeg Center
11:21AM 50.1833 -96.8667 18° North 120 138 3,000  Level Winnipeg Center
11:22AM 50.2000 -96.8833 327° Northwest 110 127 3,000  Level Winnipeg Center
11:23AM 50.2167 -96.9333 298° West 110 127 3,000  Level Winnipeg Center
11:24AM 50.2167 -96.9667 270° West 100 115 3,000 -180 Level Winnipeg Center
11:25AM 50.1833 -97.0000 213° Southwest 100 115 2,700 -420 Descending Winnipeg Center
11:26AM 50.1667 -97.0000 180° South 100 115 2,200 -300 Descending Winnipeg Center
11:27AM 50.1333 -97.0167 198° South 90 104 2,100 -240 Descending Winnipeg Center
11:28AM 50.1167 -97.0167 180° South 100 115 1,800 -420 Descending Winnipeg Center
11:29AM 50.0833 -97.0167 180° South 90 104 1,300 -360 Descending Winnipeg Center
11:30AM 50.0667 -97.0167 180° South 80 92 1,100 -300 Descending Winnipeg Center
11:31AM 50.0500 -97.0167 180° South 60 69 800 -300 Descending Winnipeg Center